Time,TemperatureF,DewpointF,PressureIn,WindDirection,WindDirectionDegrees,WindSpeedMPH,WindSpeedGustMPH,Humidity,HourlyPrecipIn,Conditions,Clouds,dailyrainin,SoftwareType,DateUTC
2013-02-26 00:01:00,45.4,40.2,30.13,South,181,5.0,6.0,82,0.00,,,0.00,Wunderground v.1.13,2013-02-26 08:01:00,
2013-02-26 00:06:00,45.3,40.1,30.13,South,182,4.0,4.0,82,0.00,,,0.00,Wunderground v.1.13,2013-02-26 08:06:00,
2013-02-26 00:11:00,45.0,39.5,30.12,South,184,3.0,3.0,81,0.00,,,0.00,Wunderground v.1.13,2013-02-26 08:11:00,
2013-02-26 00:16:00,44.9,39.4,30.12,South,184,2.0,6.0,81,0.00,,,0.00,Wunderground v.1.13,2013-02-26 08:16:00,
2013-02-26 00:21:00,44.6,39.1,30.12,South,184,3.0,3.0,81,0.00,,,0.00,Wunderground v.1.13,2013-02-26 08:21:00,
2013-02-26 00:26:00,44.8,39.3,30.12,South,183,3.0,7.0,81,0.00,,,0.00,Wunderground v.1.13,2013-02-26 08:26:00,
2013-02-26 00:31:00,44.5,38.7,30.12,South,179,2.0,2.0,80,0.00,,,0.00,Wunderground v.1.13,2013-02-26 08:31:00,
2013-02-26 00:36:00,44.3,38.8,30.12,South,182,1.0,4.0,81,0.00,,,0.00,Wunderground v.1.13,2013-02-26 08:36:00,
2013-02-26 00:46:00,44.3,38.8,30.11,South,181,5.0,5.0,81,0.00,,,0.00,Wunderground v.1.13,2013-02-26 08:46:00,
2013-02-26 00:51:00,44.1,38.3,30.11,South,175,4.0,4.0,80,0.00,,,0.00,Wunderground v.1.13,2013-02-26 08:51:00,
2013-02-26 00:56:00,44.0,38.2,30.11,SSE,161,2.0,2.0,80,0.00,,,0.00,Wunderground v.1.13,2013-02-26 08:56:00,
2013-02-26 01:01:00,44.3,38.8,30.11,South,173,2.0,2.0,81,0.00,,,0.00,Wunderground v.1.13,2013-02-26 09:01:00,
2013-02-26 01:06:00,44.5,38.7,30.11,SSE,153,2.0,2.0,80,0.00,,,0.00,Wunderground v.1.13,2013-02-26 09:06:00,
2013-02-26 01:11:00,44.1,38.3,30.11,South,172,1.0,1.0,80,0.00,,,0.00,Wunderground v.1.13,2013-02-26 09:11:00,
2013-02-26 01:16:00,43.9,38.1,30.10,South,184,3.0,3.0,80,0.00,,,0.00,Wunderground v.1.13,2013-02-26 09:16:00,
2013-02-26 01:21:00,44.1,38.3,30.10,South,186,3.0,3.0,80,0.00,,,0.00,Wunderground v.1.13,2013-02-26 09:21:00,
2013-02-26 01:26:00,44.3,38.5,30.10,South,184,2.0,2.0,80,0.00,,,0.00,Wunderground v.1.13,2013-02-26 09:26:00,
2013-02-26 01:36:00,44.8,38.4,30.09,South,190,2.0,2.0,78,0.00,,,0.00,Wunderground v.1.13,2013-02-26 09:36:00,
2013-02-26 01:41:00,44.9,37.8,30.10,SSW,192,1.0,1.0,76,0.00,,,0.00,Wunderground v.1.13,2013-02-26 09:41:00,
2013-02-26 01:46:00,43.9,36.8,30.10,South,191,0.0,0.0,76,0.00,,,0.00,Wunderground v.1.13,2013-02-26 09:46:00,
2013-02-26 01:51:00,43.4,36.7,30.09,SSW,192,0.0,0.0,77,0.00,,,0.00,Wunderground v.1.13,2013-02-26 09:51:00,
2013-02-26 01:56:00,43.2,36.8,30.10,South,191,0.0,0.0,78,0.00,,,0.00,Wunderground v.1.13,2013-02-26 09:56:00,
2013-02-26 02:01:00,42.9,36.5,30.09,South,191,0.0,0.0,78,0.00,,,0.00,Wunderground v.1.13,2013-02-26 10:01:00,
2013-02-26 02:06:00,42.5,36.4,30.09,South,190,1.0,1.0,79,0.00,,,0.00,Wunderground v.1.13,2013-02-26 10:06:00,
2013-02-26 02:11:00,42.4,36.3,30.09,South,188,1.0,1.0,79,0.00,,,0.00,Wunderground v.1.13,2013-02-26 10:11:00,
2013-02-26 02:21:00,42.4,36.3,30.08,South,188,0.0,0.0,79,0.00,,,0.00,Wunderground v.1.13,2013-02-26 10:21:00,
2013-02-26 02:26:00,42.3,36.6,30.08,South,187,1.0,1.0,80,0.00,,,0.00,Wunderground v.1.13,2013-02-26 10:26:00,
2013-02-26 02:31:00,42.5,36.4,30.08,South,187,0.0,0.0,79,0.00,,,0.00,Wunderground v.1.13,2013-02-26 10:31:00,
2013-02-26 02:36:00,42.3,36.6,30.07,South,187,2.0,6.0,80,0.00,,,0.00,Wunderground v.1.13,2013-02-26 10:36:00,
2013-02-26 02:41:00,42.5,36.8,30.07,South,185,3.0,3.0,80,0.00,,,0.00,Wunderground v.1.13,2013-02-26 10:41:00,
2013-02-26 02:46:00,42.2,36.2,30.07,SSW,192,2.0,2.0,79,0.00,,,0.00,Wunderground v.1.13,2013-02-26 10:46:00,
2013-02-26 02:51:00,42.9,36.8,30.07,South,178,2.0,5.0,79,0.00,,,0.00,Wunderground v.1.13,2013-02-26 10:51:00,
2013-02-26 02:56:00,43.0,36.3,30.07,South,182,2.0,2.0,77,0.00,,,0.00,Wunderground v.1.13,2013-02-26 10:56:00,
2013-02-26 03:01:00,42.3,35.6,30.07,South,184,1.0,1.0,77,0.00,,,0.00,Wunderground v.1.13,2013-02-26 11:01:00,
2013-02-26 03:06:00,42.4,36.0,30.07,South,182,1.0,1.0,78,0.00,,,0.00,Wunderground v.1.13,2013-02-26 11:06:00,
2013-02-26 03:11:00,42.2,35.8,30.07,South,182,1.0,1.0,78,0.00,,,0.00,Wunderground v.1.13,2013-02-26 11:11:00,
2013-02-26 03:16:00,42.1,35.7,30.07,South,182,0.0,0.0,78,0.00,,,0.00,Wunderground v.1.13,2013-02-26 11:16:00,
2013-02-26 03:21:00,41.9,35.5,30.07,South,183,1.0,1.0,78,0.00,,,0.00,Wunderground v.1.13,2013-02-26 11:21:00,
2013-02-26 03:31:00,41.2,35.2,30.07,South,184,1.0,3.0,79,0.00,,,0.00,Wunderground v.1.13,2013-02-26 11:31:00,
2013-02-26 03:36:00,41.4,35.4,30.07,South,184,2.0,4.0,79,0.00,,,0.00,Wunderground v.1.13,2013-02-26 11:36:00,
2013-02-26 03:41:00,41.6,35.6,30.07,South,183,2.0,2.0,79,0.00,,,0.00,Wunderground v.1.13,2013-02-26 11:41:00,
2013-02-26 03:46:00,42.0,35.6,30.07,South,186,2.0,5.0,78,0.00,,,0.00,Wunderground v.1.13,2013-02-26 11:46:00,
2013-02-26 03:51:00,42.5,35.8,30.07,South,186,2.0,2.0,77,0.00,,,0.00,Wunderground v.1.13,2013-02-26 11:51:00,
2013-02-26 03:56:00,42.7,35.7,30.07,South,180,2.0,5.0,76,0.00,,,0.00,Wunderground v.1.13,2013-02-26 11:56:00,
2013-02-26 04:06:00,42.4,34.7,30.07,South,180,1.0,1.0,74,0.00,,,0.00,Wunderground v.1.13,2013-02-26 12:06:00,
2013-02-26 04:11:00,42.8,35.1,30.07,South,184,1.0,1.0,74,0.00,,,0.00,Wunderground v.1.13,2013-02-26 12:11:00,
2013-02-26 04:16:00,43.0,35.3,30.08,South,183,1.0,2.0,74,0.00,,,0.00,Wunderground v.1.13,2013-02-26 12:16:00,
2013-02-26 04:21:00,43.2,34.4,30.08,South,182,2.0,3.0,71,0.00,,,0.00,Wunderground v.1.13,2013-02-26 12:21:00,
2013-02-26 04:26:00,42.5,33.8,30.08,South,183,1.0,1.0,71,0.00,,,0.00,Wunderground v.1.13,2013-02-26 12:26:00,
2013-02-26 04:31:00,41.8,33.4,30.07,South,184,1.0,1.0,72,0.00,,,0.00,Wunderground v.1.13,2013-02-26 12:31:00,
2013-02-26 04:36:00,41.3,33.3,30.08,South,184,1.0,1.0,73,0.00,,,0.00,Wunderground v.1.13,2013-02-26 12:36:00,
2013-02-26 04:41:00,41.0,33.3,30.08,South,183,1.0,1.0,74,0.00,,,0.00,Wunderground v.1.13,2013-02-26 12:41:00,
2013-02-26 04:46:00,40.8,33.2,30.08,South,182,1.0,1.0,74,0.00,,,0.00,Wunderground v.1.13,2013-02-26 12:46:00,
2013-02-26 04:56:00,40.6,33.3,30.08,South,181,1.0,4.0,75,0.00,,,0.00,Wunderground v.1.13,2013-02-26 12:56:00,
2013-02-26 05:01:00,40.4,33.1,30.08,South,183,1.0,1.0,75,0.00,,,0.00,Wunderground v.1.13,2013-02-26 13:01:00,
2013-02-26 05:06:00,40.2,32.9,30.07,South,182,2.0,5.0,75,0.00,,,0.00,Wunderground v.1.13,2013-02-26 13:06:00,
2013-02-26 05:11:00,40.3,33.3,30.08,South,185,2.0,4.0,76,0.00,,,0.00,Wunderground v.1.13,2013-02-26 13:11:00,
2013-02-26 05:16:00,40.5,33.5,30.07,South,182,1.0,1.0,76,0.00,,,0.00,Wunderground v.1.13,2013-02-26 13:16:00,
2013-02-26 05:21:00,40.5,33.5,30.07,South,184,2.0,5.0,76,0.00,,,0.00,Wunderground v.1.13,2013-02-26 13:21:00,
2013-02-26 05:26:00,40.8,33.8,30.08,South,186,3.0,3.0,76,0.00,,,0.00,Wunderground v.1.13,2013-02-26 13:26:00,
2013-02-26 05:31:00,41.3,34.0,30.08,South,186,4.0,4.0,75,0.00,,,0.00,Wunderground v.1.13,2013-02-26 13:31:00,
2013-02-26 05:36:00,42.1,34.4,30.08,South,187,5.0,5.0,74,0.00,,,0.00,Wunderground v.1.13,2013-02-26 13:36:00,
2013-02-26 05:41:00,41.9,33.5,30.08,South,182,2.0,6.0,72,0.00,,,0.00,Wunderground v.1.13,2013-02-26 13:41:00,
2013-02-26 05:51:00,41.7,33.7,30.08,South,181,2.0,2.0,73,0.00,,,0.00,Wunderground v.1.13,2013-02-26 13:51:00,
2013-02-26 05:56:00,41.8,33.8,30.07,South,182,1.0,1.0,73,0.00,,,0.00,Wunderground v.1.13,2013-02-26 13:56:00,
2013-02-26 06:01:00,41.7,33.7,30.07,South,182,2.0,2.0,73,0.00,,,0.00,Wunderground v.1.13,2013-02-26 14:01:00,
2013-02-26 06:06:00,41.5,33.5,30.08,South,184,3.0,4.0,73,0.00,,,0.00,Wunderground v.1.13,2013-02-26 14:06:00,
2013-02-26 06:11:00,41.2,32.9,30.08,SSW,195,2.0,5.0,72,0.00,,,0.00,Wunderground v.1.13,2013-02-26 14:11:00,
2013-02-26 06:16:00,41.3,34.3,30.08,South,178,3.0,3.0,76,0.00,,,0.00,Wunderground v.1.13,2013-02-26 14:16:00,
2013-02-26 06:21:00,41.3,33.3,30.07,South,180,2.0,2.0,73,0.00,,,0.00,Wunderground v.1.13,2013-02-26 14:21:00,
2013-02-26 06:26:00,41.1,33.1,30.07,South,172,1.0,1.0,73,0.00,,,0.00,Wunderground v.1.13,2013-02-26 14:26:00,
2013-02-26 06:31:00,40.7,33.1,30.08,South,172,0.0,0.0,74,0.00,,,0.00,Wunderground v.1.13,2013-02-26 14:31:00,
2013-02-26 06:36:00,40.5,32.9,30.08,South,173,0.0,0.0,74,0.00,,,0.00,Wunderground v.1.13,2013-02-26 14:36:00,
2013-02-26 06:46:00,41.5,34.5,30.08,South,178,0.0,0.0,76,0.00,,,0.00,Wunderground v.1.13,2013-02-26 14:46:00,
2013-02-26 06:51:00,41.6,33.9,30.08,South,178,1.0,1.0,74,0.00,,,0.00,Wunderground v.1.13,2013-02-26 14:51:00,
2013-02-26 06:56:00,41.6,33.6,30.08,South,186,2.0,2.0,73,0.00,,,0.00,Wunderground v.1.13,2013-02-26 14:56:00,
2013-02-26 07:01:00,41.4,33.7,30.08,South,184,1.0,1.0,74,0.00,,,0.00,Wunderground v.1.13,2013-02-26 15:01:00,
2013-02-26 07:06:00,41.4,33.7,30.08,South,176,0.0,3.0,74,0.00,,,0.00,Wunderground v.1.13,2013-02-26 15:06:00,
2013-02-26 07:11:00,41.4,33.4,30.08,South,182,3.0,6.0,73,0.00,,,0.00,Wunderground v.1.13,2013-02-26 15:11:00,
2013-02-26 07:16:00,42.0,34.0,30.08,South,182,4.0,4.0,73,0.00,,,0.00,Wunderground v.1.13,2013-02-26 15:16:00,
2013-02-26 07:21:00,42.4,33.7,30.09,South,174,2.0,2.0,71,0.00,,,0.00,Wunderground v.1.13,2013-02-26 15:21:00,
2013-02-26 07:31:00,41.5,33.1,30.09,South,173,0.0,0.0,72,0.00,,,0.00,Wunderground v.1.13,2013-02-26 15:31:00,
2013-02-26 07:41:00,41.5,33.1,30.09,South,182,1.0,1.0,72,0.00,,,0.00,Wunderground v.1.13,2013-02-26 15:41:00,
2013-02-26 07:51:00,43.2,34.4,30.09,South,184,1.0,1.0,71,0.00,,,0.00,Wunderground v.1.13,2013-02-26 15:51:00,
2013-02-26 07:56:00,43.5,34.7,30.09,South,191,1.0,1.0,71,0.00,,,0.00,Wunderground v.1.13,2013-02-26 15:56:00,
2013-02-26 08:01:00,44.5,34.6,30.10,South,186,3.0,3.0,68,0.00,,,0.00,Wunderground v.1.13,2013-02-26 16:01:00,
2013-02-26 08:11:00,45.1,34.8,30.09,South,183,3.0,3.0,67,0.00,,,0.00,Wunderground v.1.13,2013-02-26 16:11:00,
2013-02-26 08:16:00,45.2,35.3,30.10,South,182,2.0,2.0,68,0.00,,,0.00,Wunderground v.1.13,2013-02-26 16:16:00,
2013-02-26 08:21:00,45.7,35.7,30.10,South,183,1.0,1.0,68,0.00,,,0.00,Wunderground v.1.13,2013-02-26 16:21:00,
2013-02-26 08:26:00,46.9,36.9,30.10,South,183,0.0,0.0,68,0.00,,,0.00,Wunderground v.1.13,2013-02-26 16:26:00,
2013-02-26 08:31:00,48.0,37.2,30.10,South,183,0.0,0.0,66,0.00,,,0.00,Wunderground v.1.13,2013-02-26 16:31:00,
2013-02-26 08:36:00,48.3,37.1,30.10,South,183,0.0,0.0,65,0.00,,,0.00,Wunderground v.1.13,2013-02-26 16:36:00,
2013-02-26 08:41:00,49.5,37.8,30.10,South,183,0.0,0.0,64,0.00,,,0.00,Wunderground v.1.13,2013-02-26 16:41:00,
2013-02-26 08:46:00,51.0,38.4,30.10,South,183,0.0,0.0,62,0.00,,,0.00,Wunderground v.1.13,2013-02-26 16:46:00,
2013-02-26 08:51:00,51.6,38.2,30.10,South,183,0.0,0.0,60,0.00,,,0.00,Wunderground v.1.13,2013-02-26 16:51:00,
2013-02-26 08:56:00,52.4,38.5,30.11,South,183,0.0,0.0,59,0.00,,,0.00,Wunderground v.1.13,2013-02-26 16:56:00,
2013-02-26 09:01:00,53.4,39.0,30.11,South,183,0.0,0.0,58,0.00,,,0.00,Wunderground v.1.13,2013-02-26 17:01:00,
2013-02-26 09:06:00,54.0,38.6,30.11,South,183,0.0,0.0,56,0.00,,,0.00,Wunderground v.1.13,2013-02-26 17:06:00,
2013-02-26 09:11:00,54.8,38.5,30.11,South,183,0.0,0.0,54,0.00,,,0.00,Wunderground v.1.13,2013-02-26 17:11:00,
2013-02-26 09:16:00,56.5,40.0,30.11,South,183,0.0,0.0,54,0.00,,,0.00,Wunderground v.1.13,2013-02-26 17:16:00,
2013-02-26 09:26:00,56.3,44.7,30.11,SSE,154,0.0,0.0,65,0.00,,,0.00,Wunderground v.1.13,2013-02-26 17:26:00,
2013-02-26 09:31:00,56.2,44.6,30.11,ESE,106,0.0,0.0,65,0.00,,,0.00,Wunderground v.1.13,2013-02-26 17:31:00,
2013-02-26 09:36:00,56.2,44.6,30.11,ESE,106,0.0,0.0,65,0.00,,,0.00,Wunderground v.1.13,2013-02-26 17:36:00,
2013-02-26 09:41:00,56.8,44.3,30.11,ESE,105,0.0,0.0,63,0.00,,,0.00,Wunderground v.1.13,2013-02-26 17:41:00,
2013-02-26 09:46:00,57.0,44.9,30.11,ESE,105,0.0,0.0,64,0.00,,,0.00,Wunderground v.1.13,2013-02-26 17:46:00,
2013-02-26 09:51:00,57.3,44.4,30.11,ESE,103,0.0,0.0,62,0.00,,,0.00,Wunderground v.1.13,2013-02-26 17:51:00,
2013-02-26 09:56:00,57.7,45.2,30.11,ESE,104,0.0,0.0,63,0.00,,,0.00,Wunderground v.1.13,2013-02-26 17:56:00,
2013-02-26 10:01:00,58.3,44.9,30.11,ESE,103,0.0,0.0,61,0.00,,,0.00,Wunderground v.1.13,2013-02-26 18:01:00,
2013-02-26 10:11:00,59.0,44.7,30.11,ESE,102,0.0,0.0,59,0.00,,,0.00,Wunderground v.1.13,2013-02-26 18:11:00,
2013-02-26 10:16:00,60.1,43.9,30.11,East,101,0.0,0.0,55,0.00,,,0.00,Wunderground v.1.13,2013-02-26 18:16:00,
2013-02-26 10:21:00,60.5,44.2,30.11,East,80,0.0,0.0,55,0.00,,,0.00,Wunderground v.1.13,2013-02-26 18:21:00,
2013-02-26 10:26:00,60.4,44.6,30.11,ENE,74,0.0,0.0,56,0.00,,,0.00,Wunderground v.1.13,2013-02-26 18:26:00,
2013-02-26 10:31:00,60.3,43.6,30.11,ENE,69,0.0,0.0,54,0.00,,,0.00,Wunderground v.1.13,2013-02-26 18:31:00,
2013-02-26 10:36:00,60.6,44.3,30.10,ENE,65,0.0,0.0,55,0.00,,,0.00,Wunderground v.1.13,2013-02-26 18:36:00,
2013-02-26 10:41:00,59.8,44.1,30.10,ENE,64,0.0,1.0,56,0.00,,,0.00,Wunderground v.1.13,2013-02-26 18:41:00,
2013-02-26 10:51:00,61.7,41.3,30.10,East,83,1.0,1.0,47,0.00,,,0.00,Wunderground v.1.13,2013-02-26 18:51:00,
2013-02-26 10:56:00,62.1,41.1,30.09,ENE,69,2.0,3.0,46,0.00,,,0.00,Wunderground v.1.13,2013-02-26 18:56:00,
2013-02-26 11:01:00,62.5,42.0,30.09,ENE,63,1.0,1.0,47,0.00,,,0.00,Wunderground v.1.13,2013-02-26 19:01:00,
2013-02-26 11:06:00,62.9,42.4,30.09,ENE,73,1.0,1.0,47,0.00,,,0.00,Wunderground v.1.13,2013-02-26 19:06:00,
2013-02-26 11:11:00,62.5,40.9,30.09,ENE,59,2.0,8.0,45,0.00,,,0.00,Wunderground v.1.13,2013-02-26 19:11:00,
2013-02-26 11:16:00,61.8,43.0,30.09,ENE,63,5.0,5.0,50,0.00,,,0.00,Wunderground v.1.13,2013-02-26 19:16:00,
2013-02-26 11:21:00,61.7,43.9,30.09,NE,56,4.0,6.0,52,0.00,,,0.00,Wunderground v.1.13,2013-02-26 19:21:00,
2013-02-26 11:31:00,63.1,43.1,30.08,ENE,61,2.0,2.0,48,0.00,,,0.00,Wunderground v.1.13,2013-02-26 19:31:00,
2013-02-26 11:36:00,64.0,43.4,30.08,NE,40,2.0,4.0,47,0.00,,,0.00,Wunderground v.1.13,2013-02-26 19:36:00,
2013-02-26 11:41:00,64.4,42.0,30.08,ENE,58,3.0,3.0,44,0.00,,,0.00,Wunderground v.1.13,2013-02-26 19:41:00,
2013-02-26 11:51:00,63.1,45.2,30.07,ENE,60,4.0,4.0,52,0.00,,,0.00,Wunderground v.1.13,2013-02-26 19:51:00,
2013-02-26 11:56:00,63.3,45.9,30.07,NE,42,3.0,3.0,53,0.00,,,0.00,Wunderground v.1.13,2013-02-26 19:56:00,
2013-02-26 12:01:00,64.0,43.4,30.07,NE,48,4.0,4.0,47,0.00,,,0.00,Wunderground v.1.13,2013-02-26 20:01:00,
2013-02-26 12:06:00,65.2,40.9,30.07,East,80,4.0,6.0,41,0.00,,,0.00,Wunderground v.1.13,2013-02-26 20:06:00,
2013-02-26 12:11:00,66.0,38.3,30.06,NE,36,4.0,6.0,36,0.00,,,0.00,Wunderground v.1.13,2013-02-26 20:11:00,
2013-02-26 12:21:00,63.9,42.7,30.06,NE,49,6.0,7.0,46,0.00,,,0.00,Wunderground v.1.13,2013-02-26 20:21:00,
2013-02-26 12:26:00,64.3,44.7,30.06,NE,53,7.0,7.0,49,0.00,,,0.00,Wunderground v.1.13,2013-02-26 20:26:00,
2013-02-26 12:31:00,64.3,43.1,30.06,ENE,63,7.0,7.0,46,0.00,,,0.00,Wunderground v.1.13,2013-02-26 20:31:00,
2013-02-26 12:36:00,64.8,42.9,30.06,ENE,74,5.0,7.0,45,0.00,,,0.00,Wunderground v.1.13,2013-02-26 20:36:00,
2013-02-26 12:41:00,65.5,41.8,30.05,NE,55,5.0,7.0,42,0.00,,,0.00,Wunderground v.1.13,2013-02-26 20:41:00,
2013-02-26 12:46:00,65.0,40.7,30.05,NE,38,7.0,7.0,41,0.00,,,0.00,Wunderground v.1.13,2013-02-26 20:46:00,
2013-02-26 12:56:00,65.8,36.6,30.05,East,91,6.0,6.0,34,0.00,,,0.00,Wunderground v.1.13,2013-02-26 20:56:00,
2013-02-26 13:01:00,66.4,37.2,30.05,ESE,116,7.0,7.0,34,0.00,,,0.00,Wunderground v.1.13,2013-02-26 21:01:00,
2013-02-26 13:06:00,65.8,38.8,30.05,ENE,57,8.0,8.0,37,0.00,,,0.00,Wunderground v.1.13,2013-02-26 21:06:00,
2013-02-26 13:11:00,66.2,39.8,30.05,NE,46,6.0,6.0,38,0.00,,,0.00,Wunderground v.1.13,2013-02-26 21:11:00,
2013-02-26 13:16:00,64.8,42.9,30.05,ENE,71,5.0,10.0,45,0.00,,,0.00,Wunderground v.1.13,2013-02-26 21:16:00,
2013-02-26 13:21:00,64.0,43.4,30.06,ENE,63,7.0,7.0,47,0.00,,,0.00,Wunderground v.1.13,2013-02-26 21:21:00,
2013-02-26 13:26:00,64.6,40.4,30.05,ENE,76,7.0,7.0,41,0.00,,,0.00,Wunderground v.1.13,2013-02-26 21:26:00,
2013-02-26 13:31:00,65.3,36.9,30.05,ENE,62,7.0,7.0,35,0.00,,,0.00,Wunderground v.1.13,2013-02-26 21:31:00,
2013-02-26 13:36:00,66.2,34.7,30.05,East,84,6.0,6.0,31,0.00,,,0.00,Wunderground v.1.13,2013-02-26 21:36:00,
2013-02-26 13:41:00,66.8,33.5,30.05,ESE,103,6.0,6.0,29,0.00,,,0.00,Wunderground v.1.13,2013-02-26 21:41:00,
2013-02-26 13:46:00,67.8,32.6,30.05,East,91,5.0,6.0,27,0.00,,,0.00,Wunderground v.1.13,2013-02-26 21:46:00,
2013-02-26 13:51:00,67.7,33.4,30.05,ESE,103,5.0,5.0,28,0.00,,,0.00,Wunderground v.1.13,2013-02-26 21:51:00,
2013-02-26 14:01:00,66.8,36.0,30.05,ENE,60,5.0,7.0,32,0.00,,,0.00,Wunderground v.1.13,2013-02-26 22:01:00,
2013-02-26 14:06:00,66.9,36.8,30.05,East,96,3.0,4.0,33,0.00,,,0.00,Wunderground v.1.13,2013-02-26 22:06:00,
2013-02-26 14:11:00,65.6,40.0,30.05,NE,43,4.0,4.0,39,0.00,,,0.00,Wunderground v.1.13,2013-02-26 22:11:00,
2013-02-26 14:16:00,65.8,37.4,30.06,ENE,60,4.0,10.0,35,0.00,,,0.00,Wunderground v.1.13,2013-02-26 22:16:00,
2013-02-26 14:21:00,66.9,34.4,30.06,ENE,64,4.0,5.0,30,0.00,,,0.00,Wunderground v.1.13,2013-02-26 22:21:00,
2013-02-26 14:26:00,66.6,33.3,30.06,East,80,4.0,4.0,29,0.00,,,0.00,Wunderground v.1.13,2013-02-26 22:26:00,
2013-02-26 14:31:00,67.6,32.4,30.05,NE,44,3.0,3.0,27,0.00,,,0.00,Wunderground v.1.13,2013-02-26 22:31:00,
2013-02-26 14:36:00,67.6,32.4,30.06,ENE,76,4.0,10.0,27,0.00,,,0.00,Wunderground v.1.13,2013-02-26 22:36:00,
2013-02-26 14:41:00,67.9,30.8,30.05,ENE,74,4.0,4.0,25,0.00,,,0.00,Wunderground v.1.13,2013-02-26 22:41:00,
2013-02-26 14:46:00,68.7,29.4,30.06,East,80,5.0,6.0,23,0.00,,,0.00,Wunderground v.1.13,2013-02-26 22:46:00,
2013-02-26 14:51:00,69.0,29.6,30.06,East,92,6.0,6.0,23,0.00,,,0.00,Wunderground v.1.13,2013-02-26 22:51:00,
2013-02-26 14:56:00,67.9,31.7,30.06,NE,38,5.0,5.0,26,0.00,,,0.00,Wunderground v.1.13,2013-02-26 22:56:00,
2013-02-26 15:01:00,66.9,33.6,30.05,NE,34,4.0,7.0,29,0.00,,,0.00,Wunderground v.1.13,2013-02-26 23:01:00,
2013-02-26 15:06:00,68.4,30.2,30.05,ENE,78,3.0,4.0,24,0.00,,,0.00,Wunderground v.1.13,2013-02-26 23:06:00,
2013-02-26 15:11:00,68.6,32.3,30.05,ENE,62,3.0,5.0,26,0.00,,,0.00,Wunderground v.1.13,2013-02-26 23:11:00,
2013-02-26 15:16:00,67.3,34.8,30.05,ESE,102,2.0,6.0,30,0.00,,,0.00,Wunderground v.1.13,2013-02-26 23:16:00,
2013-02-26 15:21:00,69.3,29.9,30.05,East,80,2.0,9.0,23,0.00,,,0.00,Wunderground v.1.13,2013-02-26 23:21:00,
2013-02-26 15:26:00,68.3,34.8,30.05,East,92,4.0,6.0,29,0.00,,,0.00,Wunderground v.1.13,2013-02-26 23:26:00,
2013-02-26 15:36:00,69.3,32.9,30.05,ESE,103,2.0,2.0,26,0.00,,,0.00,Wunderground v.1.13,2013-02-26 23:36:00,
2013-02-26 15:41:00,69.9,35.3,30.05,NE,42,1.0,1.0,28,0.00,,,0.00,Wunderground v.1.13,2013-02-26 23:41:00,
2013-02-26 15:46:00,69.4,35.7,30.05,ENE,75,3.0,4.0,29,0.00,,,0.00,Wunderground v.1.13,2013-02-26 23:46:00,
2013-02-26 15:51:00,67.5,39.6,30.05,NE,36,3.0,3.0,36,0.00,,,0.00,Wunderground v.1.13,2013-02-26 23:51:00,
2013-02-26 15:56:00,65.8,42.7,30.05,East,86,2.0,3.0,43,0.00,,,0.00,Wunderground v.1.13,2013-02-26 23:56:00,
2013-02-26 16:01:00,64.7,45.6,30.05,NE,56,2.0,2.0,50,0.00,,,0.00,Wunderground v.1.13,2013-02-27 00:01:00,
2013-02-26 16:06:00,63.4,46.0,30.05,East,86,3.0,3.0,53,0.00,,,0.00,Wunderground v.1.13,2013-02-27 00:06:00,
2013-02-26 16:11:00,63.0,46.6,30.05,ENE,64,4.0,4.0,55,0.00,,,0.00,Wunderground v.1.13,2013-02-27 00:11:00,
2013-02-26 16:21:00,64.2,45.2,30.05,ENE,60,3.0,3.0,50,0.00,,,0.00,Wunderground v.1.13,2013-02-27 00:21:00,
2013-02-26 16:26:00,64.2,44.1,30.05,NE,39,2.0,2.0,48,0.00,,,0.00,Wunderground v.1.13,2013-02-27 00:26:00,
2013-02-26 16:31:00,64.4,43.7,30.05,ENE,78,2.0,2.0,47,0.00,,,0.00,Wunderground v.1.13,2013-02-27 00:31:00,
2013-02-26 16:36:00,63.5,44.5,30.05,ENE,65,2.0,2.0,50,0.00,,,0.00,Wunderground v.1.13,2013-02-27 00:36:00,
2013-02-26 16:41:00,62.6,46.2,30.05,NE,51,3.0,3.0,55,0.00,,,0.00,Wunderground v.1.13,2013-02-27 00:41:00,
2013-02-26 16:46:00,62.4,47.9,30.05,East,80,2.0,4.0,59,0.00,,,0.00,Wunderground v.1.13,2013-02-27 00:46:00,
2013-02-26 16:51:00,61.6,49.3,30.05,ENE,67,2.0,7.0,64,0.00,,,0.00,Wunderground v.1.13,2013-02-27 00:51:00,
2013-02-26 17:01:00,60.8,49.0,30.05,ENE,73,3.0,5.0,65,0.00,,,0.00,Wunderground v.1.13,2013-02-27 01:01:00,
2013-02-26 17:06:00,60.6,49.6,30.05,East,82,3.0,5.0,67,0.00,,,0.00,Wunderground v.1.13,2013-02-27 01:06:00,
2013-02-26 17:11:00,60.7,50.1,30.05,ENE,65,3.0,3.0,68,0.00,,,0.00,Wunderground v.1.13,2013-02-27 01:11:00,
2013-02-26 17:16:00,60.8,49.4,30.05,NE,38,3.0,3.0,66,0.00,,,0.00,Wunderground v.1.13,2013-02-27 01:16:00,
2013-02-26 17:21:00,61.0,48.7,30.05,NE,46,2.0,2.0,64,0.00,,,0.00,Wunderground v.1.13,2013-02-27 01:21:00,
2013-02-26 17:31:00,62.1,47.1,30.06,ENE,65,2.0,2.0,58,0.00,,,0.00,Wunderground v.1.13,2013-02-27 01:31:00,
2013-02-26 17:36:00,62.5,46.1,30.06,ENE,59,0.0,0.0,55,0.00,,,0.00,Wunderground v.1.13,2013-02-27 01:36:00,
2013-02-26 17:46:00,62.5,42.5,30.06,ENE,59,0.0,0.0,48,0.00,,,0.00,Wunderground v.1.13,2013-02-27 01:46:00,
2013-02-26 17:51:00,62.4,42.4,30.06,ENE,59,0.0,0.0,48,0.00,,,0.00,Wunderground v.1.13,2013-02-27 01:51:00,
2013-02-26 17:56:00,62.3,39.5,30.06,ENE,59,0.0,0.0,43,0.00,,,0.00,Wunderground v.1.13,2013-02-27 01:56:00,
2013-02-26 18:01:00,62.1,39.3,30.06,ENE,59,0.0,0.0,43,0.00,,,0.00,Wunderground v.1.13,2013-02-27 02:01:00,
2013-02-26 18:11:00,62.1,38.1,30.07,ENE,59,0.0,0.0,41,0.00,,,0.00,Wunderground v.1.13,2013-02-27 02:11:00,
2013-02-26 18:16:00,62.2,38.2,30.07,ENE,59,0.0,0.0,41,0.00,,,0.00,Wunderground v.1.13,2013-02-27 02:16:00,
2013-02-26 18:21:00,61.8,39.1,30.07,ENE,59,0.0,0.0,43,0.00,,,0.00,Wunderground v.1.13,2013-02-27 02:21:00,
2013-02-26 18:31:00,61.1,40.7,30.07,ENE,59,0.0,0.0,47,0.00,,,0.00,Wunderground v.1.13,2013-02-27 02:31:00,
2013-02-26 18:36:00,60.7,39.8,30.07,ENE,59,0.0,0.0,46,0.00,,,0.00,Wunderground v.1.13,2013-02-27 02:36:00,
2013-02-26 18:41:00,60.3,39.4,30.08,ENE,59,0.0,0.0,46,0.00,,,0.00,Wunderground v.1.13,2013-02-27 02:41:00,
2013-02-26 18:46:00,60.0,39.7,30.08,ENE,59,0.0,0.0,47,0.00,,,0.00,Wunderground v.1.13,2013-02-27 02:46:00,
2013-02-26 18:51:00,60.0,39.7,30.08,ENE,59,0.0,0.0,47,0.00,,,0.00,Wunderground v.1.13,2013-02-27 02:51:00,
2013-02-26 18:56:00,60.4,40.1,30.09,ENE,59,0.0,0.0,47,0.00,,,0.00,Wunderground v.1.13,2013-02-27 02:56:00,
2013-02-26 19:01:00,60.4,40.1,30.09,ENE,59,0.0,0.0,47,0.00,,,0.00,Wunderground v.1.13,2013-02-27 03:01:00,
2013-02-26 19:11:00,59.4,39.1,30.09,ENE,72,0.0,0.0,47,0.00,,,0.00,Wunderground v.1.13,2013-02-27 03:11:00,
2013-02-26 19:16:00,58.7,40.6,30.10,ENE,72,0.0,0.0,51,0.00,,,0.00,Wunderground v.1.13,2013-02-27 03:16:00,
2013-02-26 19:21:00,58.6,39.0,30.10,East,88,0.0,0.0,48,0.00,,,0.00,Wunderground v.1.13,2013-02-27 03:21:00,
2013-02-26 19:26:00,58.2,38.6,30.10,ESE,103,0.0,0.0,48,0.00,,,0.00,Wunderground v.1.13,2013-02-27 03:26:00,
2013-02-26 19:31:00,57.8,37.7,30.10,ESE,115,0.0,0.0,47,0.00,,,0.00,Wunderground v.1.13,2013-02-27 03:31:00,
2013-02-26 19:36:00,58.1,36.3,30.10,ESE,121,0.0,0.0,44,0.00,,,0.00,Wunderground v.1.13,2013-02-27 03:36:00,
2013-02-26 19:41:00,57.9,36.1,30.11,SE,141,0.0,0.0,44,0.00,,,0.00,Wunderground v.1.13,2013-02-27 03:41:00,
2013-02-26 19:51:00,56.4,36.4,30.11,SE,144,0.0,0.0,47,0.00,,,0.00,Wunderground v.1.13,2013-02-27 03:51:00,
2013-02-26 20:01:00,56.2,36.8,30.11,SE,144,0.0,0.0,48,0.00,,,0.00,Wunderground v.1.13,2013-02-27 04:01:00,
2013-02-26 20:06:00,56.2,38.3,30.11,SE,144,0.0,0.0,51,0.00,,,0.00,Wunderground v.1.13,2013-02-27 04:06:00,
2013-02-26 20:11:00,55.8,36.9,30.11,SE,144,0.0,0.0,49,0.00,,,0.00,Wunderground v.1.13,2013-02-27 04:11:00,
2013-02-26 20:16:00,55.4,36.5,30.11,SSE,148,0.0,0.0,49,0.00,,,0.00,Wunderground v.1.13,2013-02-27 04:16:00,
2013-02-26 20:21:00,55.1,36.3,30.11,South,176,0.0,0.0,49,0.00,,,0.00,Wunderground v.1.13,2013-02-27 04:21:00,
2013-02-26 20:26:00,54.9,35.6,30.12,South,178,0.0,0.0,48,0.00,,,0.00,Wunderground v.1.13,2013-02-27 04:26:00,
2013-02-26 20:36:00,54.3,35.5,30.12,South,186,1.0,1.0,49,0.00,,,0.00,Wunderground v.1.13,2013-02-27 04:36:00,
2013-02-26 20:41:00,54.1,35.3,30.12,South,186,2.0,2.0,49,0.00,,,0.00,Wunderground v.1.13,2013-02-27 04:41:00,
2013-02-26 20:46:00,54.6,36.3,30.12,South,191,1.0,1.0,50,0.00,,,0.00,Wunderground v.1.13,2013-02-27 04:46:00,
2013-02-26 20:51:00,54.7,35.9,30.13,South,190,0.0,0.0,49,0.00,,,0.00,Wunderground v.1.13,2013-02-27 04:51:00,
2013-02-26 21:01:00,55.1,36.8,30.13,South,190,0.0,0.0,50,0.00,,,0.00,Wunderground v.1.13,2013-02-27 05:01:00,
2013-02-26 21:06:00,54.5,35.7,30.14,South,190,0.0,0.0,49,0.00,,,0.00,Wunderground v.1.13,2013-02-27 05:06:00,
2013-02-26 21:11:00,53.7,33.9,30.14,South,190,0.0,0.0,47,0.00,,,0.00,Wunderground v.1.13,2013-02-27 05:11:00,
2013-02-26 21:16:00,53.6,33.8,30.14,South,190,0.0,0.0,47,0.00,,,0.00,Wunderground v.1.13,2013-02-27 05:16:00,
2013-02-26 21:21:00,53.3,34.1,30.15,South,190,0.0,0.0,48,0.00,,,0.00,Wunderground v.1.13,2013-02-27 05:21:00,
2013-02-26 21:26:00,53.8,34.0,30.15,South,186,0.0,7.0,47,0.00,,,0.00,Wunderground v.1.13,2013-02-27 05:26:00,
2013-02-26 21:36:00,54.3,32.3,30.15,South,180,2.0,6.0,43,0.00,,,0.00,Wunderground v.1.13,2013-02-27 05:36:00,
2013-02-26 21:41:00,54.0,33.1,30.15,South,186,2.0,2.0,45,0.00,,,0.00,Wunderground v.1.13,2013-02-27 05:41:00,
2013-02-26 21:46:00,53.1,32.8,30.16,South,186,1.0,1.0,46,0.00,,,0.00,Wunderground v.1.13,2013-02-27 05:46:00,
2013-02-26 21:51:00,52.6,32.9,30.15,South,186,0.0,0.0,47,0.00,,,0.00,Wunderground v.1.13,2013-02-27 05:51:00,
2013-02-26 21:56:00,52.5,32.8,30.15,South,186,0.0,4.0,47,0.00,,,0.00,Wunderground v.1.13,2013-02-27 05:56:00,
2013-02-26 22:01:00,53.0,32.8,30.15,South,186,1.0,1.0,46,0.00,,,0.00,Wunderground v.1.13,2013-02-27 06:01:00,
2013-02-26 22:11:00,52.1,32.5,30.15,South,186,0.0,0.0,47,0.00,,,0.00,Wunderground v.1.13,2013-02-27 06:11:00,
2013-02-26 22:16:00,51.7,32.6,30.15,South,173,1.0,7.0,48,0.00,,,0.00,Wunderground v.1.13,2013-02-27 06:16:00,
2013-02-26 22:21:00,51.4,32.3,30.16,South,182,2.0,2.0,48,0.00,,,0.00,Wunderground v.1.13,2013-02-27 06:21:00,
2013-02-26 22:26:00,51.5,31.9,30.15,South,182,2.0,10.0,47,0.00,,,0.00,Wunderground v.1.13,2013-02-27 06:26:00,
2013-02-26 22:31:00,52.1,31.9,30.16,South,184,3.0,3.0,46,0.00,,,0.00,Wunderground v.1.13,2013-02-27 06:31:00,
2013-02-26 22:36:00,51.8,31.7,30.16,South,188,2.0,2.0,46,0.00,,,0.00,Wunderground v.1.13,2013-02-27 06:36:00,
2013-02-26 22:41:00,52.8,31.5,30.16,SSW,195,1.0,1.0,44,0.00,,,0.00,Wunderground v.1.13,2013-02-27 06:41:00,
2013-02-26 22:46:00,52.2,30.9,30.17,South,186,1.0,1.0,44,0.00,,,0.00,Wunderground v.1.13,2013-02-27 06:46:00,
2013-02-26 22:51:00,51.0,31.5,30.16,South,186,0.0,0.0,47,0.00,,,0.00,Wunderground v.1.13,2013-02-27 06:51:00,
2013-02-26 22:56:00,50.6,31.1,30.17,South,186,0.0,0.0,47,0.00,,,0.00,Wunderground v.1.13,2013-02-27 06:56:00,
2013-02-26 23:06:00,50.2,31.2,30.17,South,184,1.0,1.0,48,0.00,,,0.00,Wunderground v.1.13,2013-02-27 07:06:00,
2013-02-26 23:11:00,50.3,30.8,30.17,South,183,1.0,5.0,47,0.00,,,0.00,Wunderground v.1.13,2013-02-27 07:11:00,
2013-02-26 23:16:00,50.0,30.5,30.17,South,182,1.0,1.0,47,0.00,,,0.00,Wunderground v.1.13,2013-02-27 07:16:00,
2013-02-26 23:21:00,50.1,30.6,30.17,South,180,1.0,2.0,47,0.00,,,0.00,Wunderground v.1.13,2013-02-27 07:21:00,
2013-02-26 23:26:00,49.4,31.0,30.18,South,179,1.0,1.0,49,0.00,,,0.00,Wunderground v.1.13,2013-02-27 07:26:00,
2013-02-26 23:31:00,49.1,30.2,30.18,South,182,1.0,1.0,48,0.00,,,0.00,Wunderground v.1.13,2013-02-27 07:31:00,
2013-02-26 23:36:00,49.4,30.5,30.18,South,187,2.0,2.0,48,0.00,,,0.00,Wunderground v.1.13,2013-02-27 07:36:00,
2013-02-26 23:41:00,49.3,30.4,30.18,South,187,1.0,1.0,48,0.00,,,0.00,Wunderground v.1.13,2013-02-27 07:41:00,
2013-02-26 23:46:00,49.4,30.0,30.18,South,182,3.0,7.0,47,0.00,,,0.00,Wunderground v.1.13,2013-02-27 07:46:00,
2013-02-26 23:51:00,49.8,29.8,30.18,South,186,4.0,9.0,46,0.00,,,0.00,Wunderground v.1.13,2013-02-27 07:51:00,